Terminal Aerodrome Forecast
Issued by NWS

Home | Current Version | Previous Version | Text Only | Print | Product List | Glossary On
Versions: 1 2 3 4 5 6 7 8 9 10 11 12 13 14 15 16
000
FTUS45 KABQ 251732
TAFGUP
TAF
KGUP 251732Z 2518/2618 25011G18KT P6SM VCSH BKN060
      TEMPO 2520/2522 VRB20G30KT -TSRA BKN050CB
     FM260100 VRB04KT P6SM SCT060
     FM261600 23007KT P6SM FEW060=

USA.gov is the U.S. government's official web portal to all federal, state and local government web resources and services.